Terminal Aerodrome Forecast
Issued by NWS Lubbock, TX

Home | Current Version | Previous Version | Text Only | Print | Product List | Glossary On
Versions: 1 2 3 4 5 6 7 8 9 10 11 12 13 14 15 16
000
FTUS44 KLUB 221100
TAFLBB
TAF
KLBB 221120Z 2212/2312 VRB04KT P6SM SCT100 BKN250
     FM221800 15012KT P6SM FEW080 SCT250
     FM230100 10006KT P6SM SCT250=

USA.gov is the U.S. government's official web portal to all federal, state and local government web resources and services.